Time;durP1;ratioP1;P1;durP2;ratioP2;P2;SDS_P1;SDS_P2;PMS_P1;PMS_P2;Temp;Humidity;BMP_temperature;BMP_pressure;BME280_temperature;BME280_humidity;BME280_pressure;Samples;Min_cycle;Max_cycle;Signal;HPM_P1;HPM_P2
2023/05/11 00:00:48;;;;;;;1.90;1.80;;;20.10;52.10;;;;;;4998960;28;20297;-75
2023/05/11 00:03:13;;;;;;;2.13;2.03;;;20.10;52.10;;;;;;5008470;28;21864;-75
2023/05/11 00:05:39;;;;;;;1.93;1.83;;;20.10;52.10;;;;;;5012089;28;20262;-74
2023/05/11 00:08:05;;;;;;;1.80;1.70;;;20.10;52.10;;;;;;5008183;28;20215;-74
2023/05/11 00:10:30;;;;;;;1.93;1.83;;;20.10;52.10;;;;;;5015177;28;20785;-74
2023/05/11 00:12:56;;;;;;;1.90;1.80;;;20.10;52.10;;;;;;5006638;28;20223;-75
2023/05/11 00:15:21;;;;;;;1.60;1.50;;;20.10;52.20;;;;;;5009395;28;20222;-74
2023/05/11 00:17:47;;;;;;;1.83;1.73;;;20.10;52.90;;;;;;4990596;28;20360;-74
2023/05/11 00:20:12;;;;;;;2.20;2.10;;;20.10;52.10;;;;;;4994336;28;20545;-74
2023/05/11 00:22:38;;;;;;;1.87;1.77;;;20.10;52.10;;;;;;5011279;28;20269;-75
2023/05/11 00:25:04;;;;;;;1.90;1.80;;;20.10;52.10;;;;;;5012495;28;20219;-75
2023/05/11 00:27:30;;;;;;;1.80;1.70;;;20.10;52.10;;;;;;5005782;28;20223;-74
2023/05/11 00:29:55;;;;;;;2.13;2.00;;;20.10;52.10;;;;;;5002529;28;20434;-75
2023/05/11 00:32:21;;;;;;;1.73;1.63;;;20.10;52.10;;;;;;5002942;28;20277;-74
2023/05/11 00:34:46;;;;;;;1.90;1.80;;;20.10;52.10;;;;;;5006474;28;20309;-75
2023/05/11 00:37:12;;;;;;;2.03;1.93;;;20.10;52.10;;;;;;5003286;28;20686;-75
2023/05/11 00:39:39;;;;;;;1.70;1.60;;;20.10;52.10;;;;;;5005075;28;20211;-75
2023/05/11 00:42:05;;;;;;;1.70;1.60;;;20.10;52.10;;;;;;4997423;28;20214;-74
2023/05/11 00:44:31;;;;;;;1.73;1.63;;;20.10;52.10;;;;;;5011562;28;20998;-74
2023/05/11 00:46:57;;;;;;;1.80;1.70;;;20.10;52.10;;;;;;5000843;28;20564;-75
2023/05/11 00:49:23;;;;;;;2.00;1.90;;;20.10;52.10;;;;;;4993963;28;20240;-75
2023/05/11 00:51:48;;;;;;;2.10;2.00;;;20.10;52.10;;;;;;4987895;28;20217;-74
2023/05/11 00:54:14;;;;;;;1.90;1.80;;;20.10;52.10;;;;;;4999753;28;20942;-74
2023/05/11 00:56:41;;;;;;;1.80;1.70;;;20.10;52.10;;;;;;4996516;28;20719;-74
2023/05/11 00:59:07;;;;;;;1.63;1.53;;;20.10;52.10;;;;;;5004787;28;20418;-74
2023/05/11 01:01:34;;;;;;;1.70;1.60;;;20.10;52.10;;;;;;5002178;28;20463;-74
2023/05/11 01:04:01;;;;;;;2.07;1.97;;;20.10;52.10;;;;;;5009309;28;20774;-74
2023/05/11 01:06:48;;;;;;;1.70;1.60;;;20.10;52.20;;;;;;4996615;28;20436;-74
2023/05/11 01:09:30;;;;;;;1.93;1.50;;;20.10;52.10;;;;;;4998465;28;20433;-74
2023/05/11 01:12:14;;;;;;;2.03;1.93;;;20.10;52.10;;;;;;4987221;28;20531;-74
2023/05/11 01:15:05;;;;;;;2.00;1.90;;;20.10;52.10;;;;;;5007661;28;20970;-74
2023/05/11 01:18:00;;;;;;;1.90;1.80;;;20.10;52.10;;;;;;5003396;28;20456;-74
2023/05/11 01:20:28;;;;;;;2.00;1.90;;;20.00;52.10;;;;;;4992979;28;20426;-74
2023/05/11 01:23:30;;;;;;;1.70;1.60;;;20.00;52.10;;;;;;5003998;28;20479;-74
2023/05/11 01:26:05;;;;;;;1.80;1.70;;;20.00;52.10;;;;;;5008065;28;20434;-74
2023/05/11 01:29:09;;;;;;;1.90;1.80;;;20.00;52.10;;;;;;5009943;28;20435;-74
2023/05/11 01:31:39;;;;;;;1.97;1.87;;;20.00;52.10;;;;;;5014625;28;20479;-75
2023/05/11 01:34:13;;;;;;;1.80;1.70;;;20.10;52.90;;;;;;5001895;28;20536;-75
2023/05/11 01:36:43;;;;;;;2.07;1.97;;;20.10;52.20;;;;;;5004197;28;20451;-74
2023/05/11 01:39:10;;;;;;;3.27;1.80;;;20.00;52.10;;;;;;4989145;28;21004;-74
2023/05/11 01:41:38;;;;;;;2.00;1.90;;;20.00;52.10;;;;;;5002094;28;20472;-74
2023/05/11 01:44:10;;;;;;;2.20;2.10;;;20.10;52.10;;;;;;5012352;28;20811;-74
2023/05/11 01:46:37;;;;;;;2.00;1.90;;;20.00;52.10;;;;;;5012365;28;21341;-74
2023/05/11 01:49:08;;;;;;;2.00;1.90;;;20.00;52.10;;;;;;5000548;28;20534;-74
2023/05/11 01:51:36;;;;;;;2.20;2.10;;;20.10;52.10;;;;;;5008684;28;20431;-74
2023/05/11 01:54:06;;;;;;;2.27;2.07;;;20.10;52.10;;;;;;5008515;28;20972;-74
2023/05/11 01:56:33;;;;;;;2.00;1.90;;;20.10;52.10;;;;;;5004310;28;20841;-74
2023/05/11 01:59:01;;;;;;;2.10;2.00;;;20.10;52.10;;;;;;5004451;28;20894;-74
2023/05/11 02:01:27;;;;;;;2.10;2.00;;;20.10;52.10;;;;;;5004562;28;20498;-74
2023/05/11 02:03:54;;;;;;;1.90;1.80;;;20.00;52.10;;;;;;5008410;28;20468;-74
2023/05/11 02:06:23;;;;;;;1.90;1.80;;;20.00;52.10;;;;;;5006399;28;20849;-74
2023/05/11 02:08:49;;;;;;;2.30;2.20;;;20.10;52.10;;;;;;5000622;28;20846;-75
2023/05/11 02:11:15;;;;;;;1.93;1.83;;;20.00;52.10;;;;;;5006285;28;20992;-74
2023/05/11 02:13:44;;;;;;;2.00;1.90;;;20.00;52.20;;;;;;5001975;28;22074;-74
2023/05/11 02:16:10;;;;;;;2.00;1.90;;;20.00;52.10;;;;;;5010402;28;20792;-75
2023/05/11 02:18:39;;;;;;;2.13;2.03;;;20.10;52.20;;;;;;4998481;28;20476;-74
2023/05/11 02:21:07;;;;;;;2.03;1.93;;;20.00;52.50;;;;;;4989710;28;20447;-75
2023/05/11 02:23:35;;;;;;;2.37;2.27;;;20.00;52.20;;;;;;5006991;28;20993;-74
2023/05/11 02:26:02;;;;;;;1.90;1.80;;;20.00;52.10;;;;;;4996354;28;20513;-74
2023/05/11 02:28:28;;;;;;;2.03;1.93;;;20.00;52.10;;;;;;5011656;28;20422;-74
2023/05/11 02:31:00;;;;;;;2.00;1.90;;;20.00;52.10;;;;;;4998127;28;20484;-74
2023/05/11 02:33:39;;;;;;;1.87;1.70;;;20.00;52.10;;;;;;4999473;28;20227;-74
2023/05/11 02:36:07;;;;;;;1.80;1.70;;;20.00;52.10;;;;;;4981079;28;20451;-75
2023/05/11 02:38:34;;;;;;;2.07;1.97;;;20.00;52.20;;;;;;5002448;28;20483;-74
2023/05/11 02:41:12;;;;;;;2.10;2.00;;;20.10;52.20;;;;;;5008575;28;20435;-74
2023/05/11 02:43:42;;;;;;;2.13;2.03;;;20.00;52.10;;;;;;5004421;28;20469;-75
2023/05/11 02:46:22;;;;;;;2.57;2.47;;;20.00;52.10;;;;;;5001203;28;21259;-74
2023/05/11 02:48:55;;;;;;;1.67;1.57;;;20.10;52.20;;;;;;4998731;28;20477;-74
2023/05/11 02:51:25;;;;;;;2.20;2.10;;;20.00;52.10;;;;;;5002278;28;20481;-74
2023/05/11 02:53:54;;;;;;;1.90;1.80;;;20.10;52.20;;;;;;5009374;28;20449;-74
2023/05/11 02:56:21;;;;;;;1.97;1.87;;;20.00;52.20;;;;;;5010006;28;20485;-74
2023/05/11 02:58:48;;;;;;;1.83;1.73;;;20.00;52.10;;;;;;5003228;28;20471;-74
2023/05/11 03:01:14;;;;;;;2.20;2.10;;;20.00;52.20;;;;;;4998728;28;20966;-74
2023/05/11 03:03:40;;;;;;;1.70;1.60;;;20.00;52.20;;;;;;5002747;28;20467;-74
2023/05/11 03:06:05;;;;;;;2.30;2.20;;;20.00;52.20;;;;;;5000676;28;20481;-75
2023/05/11 03:08:31;;;;;;;2.23;2.13;;;20.00;52.20;;;;;;5000761;28;20556;-74
2023/05/11 03:10:57;;;;;;;2.17;2.07;;;20.10;52.30;;;;;;5008029;28;20239;-74
2023/05/11 03:13:23;;;;;;;2.07;1.97;;;20.10;52.30;;;;;;5002562;28;20237;-74
2023/05/11 03:15:51;;;;;;;2.30;2.20;;;20.10;52.30;;;;;;5003032;28;21274;-74
2023/05/11 03:18:18;;;;;;;1.90;1.80;;;20.00;52.20;;;;;;5005528;28;20495;-74
2023/05/11 03:20:46;;;;;;;2.30;2.20;;;20.00;52.20;;;;;;4988566;28;20465;-74
2023/05/11 03:23:14;;;;;;;2.10;2.00;;;20.00;52.60;;;;;;5014592;28;20553;-74
2023/05/11 03:25:41;;;;;;;2.00;1.90;;;20.00;52.20;;;;;;5013046;28;20447;-74
2023/05/11 03:28:08;;;;;;;2.10;2.00;;;20.00;52.20;;;;;;5013909;28;20419;-74
2023/05/11 03:30:34;;;;;;;2.10;2.00;;;20.00;52.20;;;;;;5015383;28;21448;-74
2023/05/11 03:32:59;;;;;;;2.07;1.97;;;20.00;52.20;;;;;;4993065;28;20557;-74
2023/05/11 03:35:27;;;;;;;2.07;1.97;;;20.00;52.20;;;;;;5014059;28;20434;-74
2023/05/11 03:37:56;;;;;;;1.80;1.70;;;20.00;52.20;;;;;;5010905;28;20215;-74
2023/05/11 03:40:23;;;;;;;1.77;1.67;;;20.00;52.20;;;;;;5017289;28;20839;-74
2023/05/11 03:42:52;;;;;;;1.97;1.87;;;20.10;52.20;;;;;;5011483;28;20439;-74
2023/05/11 03:45:20;;;;;;;2.23;2.13;;;20.00;52.20;;;;;;5011348;28;20496;-74
2023/05/11 03:47:47;;;;;;;1.93;1.83;;;20.00;52.20;;;;;;5010908;28;20525;-74
2023/05/11 03:50:14;;;;;;;2.33;2.23;;;20.00;52.20;;;;;;5001598;28;20950;-74
2023/05/11 03:52:40;;;;;;;2.03;1.93;;;20.00;52.20;;;;;;4999516;28;20828;-74
2023/05/11 03:55:07;;;;;;;2.00;1.90;;;20.00;52.90;;;;;;5013627;28;20444;-74
2023/05/11 03:57:33;;;;;;;2.17;2.07;;;20.00;52.20;;;;;;5000301;28;20453;-74
2023/05/11 03:59:59;;;;;;;2.00;1.90;;;20.00;52.20;;;;;;5008121;28;20811;-73
2023/05/11 04:02:25;;;;;;;2.30;2.20;;;20.10;52.20;;;;;;5006452;28;20427;-75
2023/05/11 04:04:51;;;;;;;1.97;1.87;;;20.00;52.20;;;;;;5008585;28;20293;-74
2023/05/11 04:07:17;;;;;;;2.20;2.10;;;20.00;52.20;;;;;;5012748;28;20225;-76
2023/05/11 04:09:43;;;;;;;2.00;1.90;;;20.00;52.20;;;;;;5010498;28;20535;-72
2023/05/11 04:12:08;;;;;;;1.90;1.80;;;20.00;52.20;;;;;;5005055;28;20220;-74
2023/05/11 04:14:34;;;;;;;2.00;1.90;;;20.00;52.20;;;;;;5005344;28;20207;-73
2023/05/11 04:17:00;;;;;;;2.10;2.00;;;20.00;52.20;;;;;;5009790;28;20266;-73
2023/05/11 04:19:26;;;;;;;1.90;1.80;;;20.00;52.20;;;;;;5013231;28;20697;-73
2023/05/11 04:21:51;;;;;;;2.23;2.13;;;20.00;52.20;;;;;;4996523;28;20464;-74
2023/05/11 04:24:17;;;;;;;2.20;2.10;;;20.00;52.20;;;;;;4996607;28;20717;-74
2023/05/11 04:26:42;;;;;;;2.33;2.00;;;20.00;52.20;;;;;;4998479;28;20253;-73
2023/05/11 04:29:08;;;;;;;2.20;2.10;;;20.00;52.10;;;;;;4999999;28;20302;-74
2023/05/11 04:31:33;;;;;;;2.43;2.30;;;20.00;52.20;;;;;;5000618;28;20292;-73
2023/05/11 04:33:59;;;;;;;2.67;2.50;;;20.00;52.20;;;;;;5011183;28;20738;-74
2023/05/11 04:36:24;;;;;;;2.20;2.00;;;20.00;52.20;;;;;;5011809;28;20246;-73
2023/05/11 04:38:51;;;;;;;2.33;2.20;;;20.00;52.20;;;;;;4997825;28;20215;-73
2023/05/11 04:41:17;;;;;;;2.10;2.00;;;20.10;52.20;;;;;;4989919;28;20363;-73
2023/05/11 04:43:43;;;;;;;2.20;2.10;;;20.00;52.20;;;;;;5005084;28;20533;-73
2023/05/11 04:46:08;;;;;;;1.90;1.80;;;20.00;52.20;;;;;;5006665;28;20226;-73
2023/05/11 04:48:34;;;;;;;2.10;2.00;;;20.00;52.10;;;;;;5018823;28;20222;-73
2023/05/11 04:51:03;;;;;;;2.23;2.13;;;20.00;52.10;;;;;;5010742;28;20227;-73
2023/05/11 04:53:29;;;;;;;2.00;1.90;;;20.00;52.10;;;;;;5009455;28;20608;-74
2023/05/11 04:55:54;;;;;;;2.23;2.13;;;20.00;52.10;;;;;;4989686;28;21653;-74
2023/05/11 04:58:20;;;;;;;2.20;2.10;;;20.00;52.10;;;;;;5007078;28;20581;-75
2023/05/11 05:00:45;;;;;;;2.20;2.00;;;20.10;52.20;;;;;;5002775;28;20321;-74
2023/05/11 05:03:11;;;;;;;2.83;2.63;;;20.00;52.20;;;;;;5009285;28;20269;-76
2023/05/11 05:05:36;;;;;;;3.63;1.90;;;20.10;52.20;;;;;;5007646;28;20604;-76
2023/05/11 05:08:02;;;;;;;2.33;2.23;;;20.00;52.20;;;;;;5007882;28;20318;-76
2023/05/11 05:10:28;;;;;;;2.00;1.90;;;20.00;52.20;;;;;;4987407;28;20365;-74
2023/05/11 05:12:53;;;;;;;2.10;2.00;;;20.00;52.10;;;;;;5006054;28;20707;-71
2023/05/11 05:15:20;;;;;;;2.23;2.13;;;20.10;52.20;;;;;;5008552;28;20255;-72
2023/05/11 05:17:45;;;;;;;2.10;2.00;;;20.00;52.10;;;;;;5006687;28;20262;-74
2023/05/11 05:20:14;;;;;;;2.53;2.43;;;20.00;52.10;;;;;;4984067;28;20904;-74
2023/05/11 05:22:40;;;;;;;2.37;2.27;;;20.10;52.10;;;;;;4998743;28;21607;-76
2023/05/11 05:25:06;;;;;;;2.27;2.17;;;20.00;52.10;;;;;;5010268;28;20440;-75
2023/05/11 05:27:32;;;;;;;2.30;2.20;;;20.10;52.10;;;;;;4997356;28;20541;-74
2023/05/11 05:29:58;;;;;;;2.10;2.00;;;20.00;52.10;;;;;;5009836;28;20544;-74
2023/05/11 05:32:24;;;;;;;2.23;2.13;;;20.10;52.10;;;;;;5013756;28;20301;-75
2023/05/11 05:34:49;;;;;;;2.30;2.20;;;20.00;52.10;;;;;;5007668;28;20339;-74
2023/05/11 05:37:15;;;;;;;2.10;2.00;;;20.00;52.10;;;;;;5004506;28;20206;-74
2023/05/11 05:39:40;;;;;;;1.90;1.80;;;20.10;52.20;;;;;;5004483;28;20295;-74
2023/05/11 05:42:06;;;;;;;2.27;2.17;;;20.00;52.10;;;;;;5002402;28;20251;-75
2023/05/11 05:44:32;;;;;;;1.93;1.83;;;20.00;52.10;;;;;;4990290;28;20225;-74
2023/05/11 05:46:57;;;;;;;2.27;2.17;;;20.00;52.10;;;;;;5004132;28;20227;-74
2023/05/11 05:49:23;;;;;;;2.40;2.30;;;20.00;52.10;;;;;;5009645;28;20240;-74
2023/05/11 05:51:50;;;;;;;3.40;3.20;;;20.10;52.10;;;;;;5010100;28;20576;-74
2023/05/11 05:54:16;;;;;;;1.90;1.80;;;20.00;52.10;;;;;;5012978;28;20215;-74
2023/05/11 05:56:41;;;;;;;2.57;2.20;;;20.00;52.10;;;;;;5007001;28;20476;-74
2023/05/11 05:59:11;;;;;;;2.33;2.23;;;20.10;52.20;;;;;;5015168;28;20229;-74
2023/05/11 06:01:43;;;;;;;2.20;2.10;;;20.00;52.10;;;;;;5008064;28;20743;-74
2023/05/11 06:04:08;;;;;;;2.47;2.27;;;20.10;52.10;;;;;;5016438;28;21059;-74
2023/05/11 06:06:34;;;;;;;2.10;2.00;;;20.00;52.10;;;;;;5009147;28;20449;-74
2023/05/11 06:08:59;;;;;;;2.23;2.13;;;20.00;52.10;;;;;;5012489;28;20220;-73
2023/05/11 06:11:25;;;;;;;2.30;2.20;;;20.00;52.10;;;;;;5012138;28;20292;-74
2023/05/11 06:13:50;;;;;;;3.10;2.90;;;20.00;52.10;;;;;;5014568;28;20218;-73
2023/05/11 06:16:16;;;;;;;2.60;2.50;;;20.00;52.10;;;;;;5016368;28;20337;-75
2023/05/11 06:18:41;;;;;;;2.90;2.60;;;20.00;52.10;;;;;;5014472;28;20215;-73
2023/05/11 06:21:07;;;;;;;2.40;2.30;;;20.00;52.10;;;;;;5016961;28;20219;-73
2023/05/11 06:23:33;;;;;;;2.37;2.27;;;20.00;52.10;;;;;;5024353;28;20302;-75
2023/05/11 06:25:58;;;;;;;2.50;2.30;;;20.00;52.10;;;;;;5013276;28;20231;-75
2023/05/11 06:28:24;;;;;;;2.83;2.63;;;20.00;52.00;;;;;;5008423;28;20214;-74
2023/05/11 06:30:49;;;;;;;2.97;2.77;;;20.00;52.10;;;;;;5012626;28;20227;-74
2023/05/11 06:33:15;;;;;;;2.60;2.50;;;20.10;52.10;;;;;;5019440;28;20219;-74
2023/05/11 06:35:40;;;;;;;2.70;2.50;;;20.10;52.10;;;;;;5018811;28;20222;-74
2023/05/11 06:38:06;;;;;;;2.60;2.50;;;20.10;52.20;;;;;;5013647;28;20576;-74
2023/05/11 06:40:32;;;;;;;2.70;2.50;;;20.00;52.10;;;;;;5013419;28;20219;-74
2023/05/11 06:42:57;;;;;;;3.13;3.00;;;20.10;52.10;;;;;;4990285;28;20915;-74
2023/05/11 06:45:23;;;;;;;2.27;2.17;;;20.00;52.80;;;;;;4998515;28;20274;-75
2023/05/11 06:47:48;;;;;;;2.60;2.40;;;20.00;52.10;;;;;;5011835;28;21044;-74
2023/05/11 06:50:14;;;;;;;2.97;2.77;;;20.00;52.10;;;;;;5019878;28;20677;-75
2023/05/11 06:52:39;;;;;;;2.53;2.43;;;20.00;52.10;;;;;;4996258;28;20269;-75
2023/05/11 06:55:05;;;;;;;2.57;2.47;;;20.00;52.10;;;;;;5017679;28;20709;-76
2023/05/11 06:57:31;;;;;;;2.90;2.70;;;20.00;52.10;;;;;;4998277;28;20223;-75
2023/05/11 06:59:56;;;;;;;2.77;2.57;;;20.10;52.10;;;;;;4998020;28;20451;-75
2023/05/11 07:02:22;;;;;;;2.93;2.73;;;20.00;52.10;;;;;;4997755;28;20239;-75
2023/05/11 07:04:47;;;;;;;2.70;2.57;;;20.00;52.10;;;;;;5006686;28;20230;-75
2023/05/11 07:07:13;;;;;;;2.70;2.50;;;20.00;52.10;;;;;;5015031;28;20591;-75
2023/05/11 07:09:38;;;;;;;2.97;2.77;;;20.00;52.10;;;;;;4999403;28;20247;-74
2023/05/11 07:12:04;;;;;;;3.07;2.87;;;20.00;52.00;;;;;;5004459;28;20239;-75
2023/05/11 07:14:30;;;;;;;2.83;2.63;;;20.10;52.10;;;;;;5005569;28;20553;-74
2023/05/11 07:16:55;;;;;;;2.67;2.47;;;20.10;52.10;;;;;;5013695;28;20262;-74
2023/05/11 07:19:21;;;;;;;2.80;2.70;;;20.10;52.10;;;;;;5008154;28;20224;-75
2023/05/11 07:21:46;;;;;;;2.63;2.53;;;20.00;52.10;;;;;;5008166;28;20238;-75
2023/05/11 07:24:12;;;;;;;3.50;3.30;;;20.10;52.10;;;;;;4997169;28;20249;-74
2023/05/11 07:26:37;;;;;;;2.57;2.37;;;20.00;52.00;;;;;;5003056;28;20292;-75
2023/05/11 07:29:03;;;;;;;2.70;2.50;;;20.00;52.00;;;;;;4985791;28;20266;-74
2023/05/11 07:31:29;;;;;;;2.57;2.40;;;20.00;52.10;;;;;;4996937;28;20247;-74
2023/05/11 07:33:55;;;;;;;2.93;2.80;;;20.10;52.10;;;;;;5015533;28;20232;-74
2023/05/11 07:36:20;;;;;;;3.07;2.87;;;20.00;52.00;;;;;;5003725;28;20262;-74
2023/05/11 07:38:46;;;;;;;2.60;2.43;;;20.00;52.10;;;;;;5015098;28;20487;-74
2023/05/11 07:41:12;;;;;;;3.33;3.13;;;20.10;52.20;;;;;;5010893;28;20234;-74
2023/05/11 07:43:37;;;;;;;3.20;3.00;;;20.00;52.10;;;;;;5010236;28;20223;-75
2023/05/11 07:46:03;;;;;;;3.00;2.80;;;20.00;52.10;;;;;;4992031;28;20234;-75
2023/05/11 07:48:29;;;;;;;3.57;3.10;;;20.00;52.00;;;;;;5001549;28;20227;-75
2023/05/11 07:50:54;;;;;;;2.97;2.87;;;20.10;52.10;;;;;;4998522;28;20227;-75
2023/05/11 07:53:20;;;;;;;3.80;3.60;;;20.00;52.00;;;;;;5014933;28;20226;-75
2023/05/11 07:55:45;;;;;;;2.80;2.70;;;20.10;52.10;;;;;;5012430;28;20219;-75
2023/05/11 07:58:11;;;;;;;3.63;3.40;;;20.00;52.00;;;;;;5017699;28;20765;-75
2023/05/11 08:00:37;;;;;;;3.10;2.90;;;20.10;52.10;;;;;;5009712;28;20262;-75
2023/05/11 08:03:03;;;;;;;3.40;3.20;;;20.10;52.10;;;;;;5020843;28;20685;-75
2023/05/11 08:05:29;;;;;;;3.17;2.97;;;20.00;52.10;;;;;;5017234;28;20317;-75
2023/05/11 08:07:55;;;;;;;3.00;2.80;;;20.00;52.00;;;;;;5009116;28;20469;-75
2023/05/11 08:10:20;;;;;;;3.37;3.17;;;20.10;52.10;;;;;;5003557;28;20460;-73
2023/05/11 08:12:46;;;;;;;3.20;3.00;;;20.10;52.10;;;;;;5003138;28;20274;-74
2023/05/11 08:15:11;;;;;;;3.20;3.00;;;20.10;52.10;;;;;;5002226;28;20307;-74
2023/05/11 08:17:37;;;;;;;3.23;3.03;;;20.10;52.10;;;;;;4995194;28;20227;-74
2023/05/11 08:20:03;;;;;;;3.23;3.03;;;20.10;52.00;;;;;;5016724;28;20237;-75
2023/05/11 08:22:29;;;;;;;2.93;2.80;;;20.10;52.10;;;;;;5014285;28;20235;-75
2023/05/11 08:24:55;;;;;;;2.90;2.70;;;20.10;52.00;;;;;;5013884;28;20464;-75
2023/05/11 08:27:21;;;;;;;2.93;2.73;;;20.00;52.00;;;;;;5016954;28;20251;-75
2023/05/11 08:29:46;;;;;;;3.00;2.80;;;20.10;52.10;;;;;;5014491;28;20318;-75
2023/05/11 08:32:12;;;;;;;2.83;2.70;;;20.10;52.10;;;;;;5007068;28;20219;-75
2023/05/11 08:34:37;;;;;;;2.67;2.57;;;20.10;52.10;;;;;;5013282;28;20215;-76
2023/05/11 08:37:03;;;;;;;2.67;2.50;;;20.10;52.10;;;;;;4997172;28;20223;-76
2023/05/11 08:39:29;;;;;;;3.13;2.93;;;20.10;52.00;;;;;;5011448;28;20243;-75
2023/05/11 08:41:58;;;;;;;2.90;2.70;;;20.10;52.00;;;;;;5019052;28;20215;-75
2023/05/11 08:44:25;;;;;;;3.80;3.33;;;20.10;52.00;;;;;;5019739;28;20575;-75
2023/05/11 08:46:52;;;;;;;2.90;2.70;;;20.10;52.10;;;;;;5015406;28;20444;-75
2023/05/11 08:49:18;;;;;;;3.00;2.80;;;20.10;52.10;;;;;;5011974;28;20411;-75
2023/05/11 08:51:45;;;;;;;3.30;3.10;;;20.10;52.10;;;;;;5011299;28;20534;-75
2023/05/11 08:54:11;;;;;;;3.00;2.80;;;20.10;52.00;;;;;;5002588;28;20226;-75
2023/05/11 08:56:39;;;;;;;3.30;3.10;;;20.10;52.00;;;;;;4994147;28;20526;-74
2023/05/11 08:59:06;;;;;;;3.03;2.83;;;20.10;52.00;;;;;;4992514;28;20437;-74
2023/05/11 09:01:34;;;;;;;2.97;2.77;;;20.10;52.10;;;;;;5000053;28;20506;-74
2023/05/11 09:04:00;;;;;;;2.80;2.70;;;20.10;52.00;;;;;;5013740;28;20961;-74
2023/05/11 09:06:27;;;;;;;3.30;3.10;;;20.10;52.00;;;;;;5017631;28;20459;-75
2023/05/11 09:08:53;;;;;;;2.83;2.73;;;20.10;52.00;;;;;;5017980;28;20940;-74
2023/05/11 09:11:20;;;;;;;3.17;2.97;;;20.10;52.00;;;;;;5017835;28;20536;-74
2023/05/11 09:13:46;;;;;;;3.30;3.10;;;20.10;52.00;;;;;;4998113;28;20454;-74
2023/05/11 09:16:12;;;;;;;2.83;2.73;;;20.10;52.00;;;;;;5008012;28;20472;-74
2023/05/11 09:18:46;;;;;;;2.73;2.53;;;20.10;52.00;;;;;;5002167;28;20230;-75
2023/05/11 09:21:12;;;;;;;3.30;3.10;;;20.10;52.00;;;;;;5013964;28;20295;-74
2023/05/11 09:23:39;;;;;;;3.03;2.83;;;20.10;52.00;;;;;;5002882;28;20598;-74
2023/05/11 09:26:12;;;;;;;2.70;2.60;;;20.10;52.00;;;;;;5011368;28;20231;-74
2023/05/11 09:28:46;;;;;;;2.80;2.60;;;20.10;52.00;;;;;;4993958;28;20551;-74
2023/05/11 09:31:12;;;;;;;3.43;3.23;;;20.10;52.00;;;;;;5009290;28;20467;-74
2023/05/11 09:33:37;;;;;;;3.03;2.83;;;20.10;52.00;;;;;;5010048;28;20515;-75
2023/05/11 09:36:04;;;;;;;3.27;3.07;;;20.10;52.00;;;;;;5010713;28;20716;-74
2023/05/11 09:38:31;;;;;;;2.60;2.50;;;20.10;52.00;;;;;;5003789;28;20277;-74
2023/05/11 09:40:56;;;;;;;2.93;2.73;;;20.10;52.00;;;;;;5002163;28;20446;-74
2023/05/11 09:43:27;;;;;;;3.30;3.10;;;20.10;52.00;;;;;;5003527;28;20431;-74
2023/05/11 09:46:00;;;;;;;2.80;2.67;;;20.10;51.90;;;;;;5002000;28;20222;-74
2023/05/11 09:48:27;;;;;;;3.47;3.27;;;20.10;51.90;;;;;;5007468;28;20530;-74
2023/05/11 09:51:06;;;;;;;2.80;2.67;;;20.10;52.00;;;;;;5010030;28;20984;-74
2023/05/11 09:53:50;;;;;;;3.20;3.00;;;20.10;52.00;;;;;;5024701;28;20958;-74
2023/05/11 09:56:16;;;;;;;2.83;2.63;;;20.10;51.90;;;;;;4997024;28;21038;-74
2023/05/11 09:58:50;;;;;;;2.80;2.60;;;20.10;51.90;;;;;;5001317;28;20533;-74
2023/05/11 10:01:17;;;;;;;2.60;2.50;;;20.10;51.90;;;;;;5003166;28;20273;-74
2023/05/11 10:03:52;;;;;;;2.77;2.67;;;20.10;51.90;;;;;;5013258;28;21300;-74
2023/05/11 10:06:18;;;;;;;3.30;3.10;;;20.10;51.90;;;;;;5015600;28;20449;-74
2023/05/11 10:08:44;;;;;;;3.10;2.90;;;20.10;51.90;;;;;;4997124;28;20454;-74
2023/05/11 10:11:10;;;;;;;3.10;2.93;;;20.10;51.90;;;;;;5004149;28;20452;-74
2023/05/11 10:13:36;;;;;;;3.47;3.27;;;20.10;51.90;;;;;;4990654;28;20443;-74
2023/05/11 10:16:03;;;;;;;3.00;2.80;;;20.10;52.00;;;;;;5010308;28;20285;-74
2023/05/11 10:18:31;;;;;;;2.80;2.60;;;20.10;52.00;;;;;;5014069;28;20980;-74
2023/05/11 10:20:57;;;;;;;3.73;3.43;;;20.10;51.90;;;;;;5000944;28;20460;-74
2023/05/11 10:23:24;;;;;;;3.27;3.07;;;20.10;51.90;;;;;;5012029;28;20841;-74
2023/05/11 10:25:51;;;;;;;3.50;3.30;;;20.10;51.90;;;;;;5016818;28;20554;-74
2023/05/11 10:28:17;;;;;;;3.20;3.00;;;20.10;51.80;;;;;;4995733;28;20453;-75
2023/05/11 10:30:43;;;;;;;2.77;2.60;;;20.10;52.60;;;;;;5016139;28;20848;-75
2023/05/11 10:33:10;;;;;;;3.37;3.17;;;20.10;51.80;;;;;;5014464;28;20609;-75
2023/05/11 10:35:37;;;;;;;3.50;3.30;;;20.20;51.90;;;;;;5020558;28;20518;-74
2023/05/11 10:38:03;;;;;;;3.80;3.60;;;20.10;51.90;;;;;;5003146;28;20839;-74
2023/05/11 10:40:33;;;;;;;2.67;2.47;;;20.10;51.80;;;;;;5018098;28;20419;-75
2023/05/11 10:43:16;;;;;;;3.20;3.00;;;20.10;51.90;;;;;;5016313;28;20285;-75
2023/05/11 10:46:31;;;;;;;2.57;2.47;;;20.10;51.90;;;;;;5004382;28;21042;-75
2023/05/11 10:49:42;;;;;;;2.60;2.40;;;20.10;51.90;;;;;;5016758;28;20499;-75
2023/05/11 10:52:40;;;;;;;2.90;2.70;;;20.10;51.90;;;;;;4984544;28;20495;-75
2023/05/11 10:55:23;;;;;;;3.30;3.10;;;20.10;51.80;;;;;;5016881;28;20450;-74
2023/05/11 10:57:55;;;;;;;3.10;2.90;;;20.10;51.90;;;;;;5011757;28;20527;-75
2023/05/11 11:00:52;;;;;;;3.07;2.87;;;20.10;51.90;;;;;;5011542;28;20534;-74
2023/05/11 11:03:18;;;;;;;3.43;3.23;;;20.10;51.90;;;;;;5007458;28;20950;-74
2023/05/11 11:05:44;;;;;;;3.73;3.53;;;20.10;51.90;;;;;;5013007;28;20457;-72
2023/05/11 11:08:09;;;;;;;3.50;3.30;;;20.10;51.80;;;;;;5001773;28;21212;-75
2023/05/11 11:10:42;;;;;;;3.00;2.83;;;20.10;51.90;;;;;;5012380;28;20273;-74
2023/05/11 11:13:10;;;;;;;3.13;2.93;;;20.10;51.90;;;;;;4999538;28;20220;-74
2023/05/11 11:15:54;;;;;;;2.80;2.60;;;20.10;51.90;;;;;;5016399;28;20815;-74
2023/05/11 11:18:28;;;;;;;2.80;2.60;;;20.10;51.80;;;;;;5017099;28;20524;-75
2023/05/11 11:20:55;;;;;;;3.17;3.00;;;20.10;51.80;;;;;;5018272;28;20484;-74
2023/05/11 11:23:47;;;;;;;3.00;2.80;;;20.10;51.90;;;;;;5013436;28;20553;-74
2023/05/11 11:26:14;;;;;;;3.10;2.90;;;20.10;51.80;;;;;;5001007;28;20465;-74
2023/05/11 11:29:04;;;;;;;2.87;2.77;;;20.10;51.90;;;;;;5006204;28;20510;-75
2023/05/11 11:31:33;;;;;;;3.63;3.43;;;20.10;51.80;;;;;;5016407;28;20583;-74
2023/05/11 11:34:28;;;;;;;2.60;2.50;;;20.10;51.90;;;;;;5008674;28;20476;-75
2023/05/11 11:36:53;;;;;;;3.03;2.83;;;20.10;52.60;;;;;;5000381;28;20465;-74
2023/05/11 11:39:25;;;;;;;3.00;2.90;;;20.10;51.90;;;;;;5003886;28;20533;-75
2023/05/11 11:42:05;;;;;;;3.10;3.00;;;20.10;51.80;;;;;;5012806;28;20222;-74
2023/05/11 11:44:33;;;;;;;3.20;3.00;;;20.10;51.90;;;;;;5015927;28;20444;-74
2023/05/11 11:47:15;;;;;;;3.27;3.07;;;20.10;51.90;;;;;;5014010;28;20430;-74
2023/05/11 11:49:45;;;;;;;3.33;3.13;;;20.10;51.80;;;;;;4994126;28;20420;-74
2023/05/11 11:52:12;;;;;;;3.10;2.90;;;20.10;51.80;;;;;;5006676;28;21056;-74
2023/05/11 11:54:39;;;;;;;3.50;3.30;;;20.10;51.80;;;;;;5003857;28;20983;-74
2023/05/11 11:57:34;;;;;;;2.70;2.60;;;20.10;51.80;;;;;;5014488;28;20463;-74
2023/05/11 12:00:00;;;;;;;2.80;2.70;;;20.10;51.80;;;;;;5014497;28;20950;-74
2023/05/11 12:02:27;;;;;;;3.17;2.97;;;20.10;51.80;;;;;;5002804;28;20422;-74
2023/05/11 12:04:58;;;;;;;3.30;3.10;;;20.10;51.90;;;;;;4999242;28;20484;-74
2023/05/11 12:07:25;;;;;;;3.07;2.93;;;20.10;51.80;;;;;;5012640;28;20464;-74
2023/05/11 12:09:51;;;;;;;2.50;2.40;;;20.10;51.90;;;;;;4977614;28;20439;-74
2023/05/11 12:12:18;;;;;;;3.13;2.93;;;20.10;51.80;;;;;;5007810;28;20472;-74
2023/05/11 12:14:49;;;;;;;3.00;2.90;;;20.10;51.80;;;;;;5017905;28;20455;-74
2023/05/11 12:17:23;;;;;;;3.03;2.83;;;20.10;51.80;;;;;;5008434;28;20434;-74
2023/05/11 12:19:48;;;;;;;3.20;3.00;;;20.10;51.80;;;;;;4999434;28;20439;-74
2023/05/11 12:22:20;;;;;;;3.23;2.93;;;20.10;51.80;;;;;;5001272;28;20461;-75
2023/05/11 12:24:46;;;;;;;3.57;3.37;;;20.10;51.80;;;;;;5009444;28;20223;-75
2023/05/11 12:27:11;;;;;;;3.20;3.00;;;20.10;52.60;;;;;;5006886;28;20439;-75
2023/05/11 12:29:37;;;;;;;3.40;3.20;;;20.10;51.80;;;;;;5011963;28;20697;-75
2023/05/11 12:32:03;;;;;;;2.87;2.77;;;20.10;51.80;;;;;;5013498;28;20256;-74
2023/05/11 12:34:28;;;;;;;2.83;2.73;;;20.20;51.90;;;;;;5012456;28;20263;-75
2023/05/11 12:36:54;;;;;;;3.23;3.03;;;20.10;51.80;;;;;;5005800;28;20947;-74
2023/05/11 12:39:25;;;;;;;3.10;2.90;;;20.10;51.80;;;;;;5018614;28;20224;-74
2023/05/11 12:41:53;;;;;;;2.63;2.53;;;20.10;51.80;;;;;;5017607;28;20285;-74
2023/05/11 12:44:21;;;;;;;2.90;2.70;;;20.10;51.80;;;;;;5012376;28;20978;-74
2023/05/11 12:46:48;;;;;;;3.10;2.90;;;20.10;51.80;;;;;;5015677;28;20544;-74
2023/05/11 12:49:22;;;;;;;3.30;3.10;;;20.10;51.70;;;;;;4997988;28;20481;-74
2023/05/11 12:51:48;;;;;;;3.20;3.00;;;20.10;51.80;;;;;;5000908;28;21228;-74
2023/05/11 12:54:24;;;;;;;3.00;2.87;;;20.10;51.80;;;;;;5015068;28;20438;-74